Sylmar, California
Current Conditions -  °F | °C
As of 1:51 AM on Tuesday 27 Jan 2015 (Local Time) from KVNY Reporting Station
Overcast Overcast  
Wind Chill: 55°   Ceiling: 10000
Heat Index: 55°   Visibility: 10mi
Dew Point: 52°   Wind: 0mph
Humidity: 89%   Direction: NA
Pressure: 30.11"   Gusts: NA
Location:  34.31°N, 118.45°W
Report Text: KVNY 270951Z 00000KT 10SM BKN100 OVC110 13/11 A3011 RMK AO2 SLP192 T01280111
Loading
Personal Weather Stations






























Interactive Weather Map New forecast layout! Learn more

10-Day Weather Forecast

Advertisements
Track Severe Weather on mobile